George Town, Cayman Islands
Current Conditions -  °F | °C
As of 9:50 PM on Friday 28 Nov 2014 (Local Time) from MWCR Reporting Station
Broken Clouds Broken Clouds  
Wind Chill: 26°   Ceiling: 1600
Heat Index: 28°   Visibility: 6mi
Dew Point: 22°   Wind: 14mph
Humidity: 78%   Direction: 50°NE
Pressure: 30.03"   Gusts: NA
Location:  19.28°N, 81.39°W
Report Text: MWCR 290250Z 05012KT 9999 BKN016 26/22 Q1017 NOSIG
Loading
Personal Weather Stations






























Interactive Weather Map New forecast layout! Learn more

10-Day Weather Forecast

Advertisements
Track Severe Weather on mobile